DAOB/TID METAR and TAF weather

Enter ICAO airport designator
Station Type Date Time Source
DAOB METAR 2020/01/22 15:00 UTC NOAA

DAOB 221500Z 20014KT 9999 SCT023 BKN026 10/06 Q1015


Station Type Date Time Source
DAOB Decoded METAR 2020/01/22 15:00 UTC NOAA

Tiaret, Algeria (DAOB) 35-15N 001-26E 1127M
Jan 22, 2020 - 10:00 AM EST / 2020.01.22 1500 UTC
Wind: from the SSW (200 degrees) at 16 MPH (14 KT):0
Visibility: greater than 7 mile(s):0
Sky conditions: mostly cloudy
Temperature: 50 F (10 C)
Dew Point: 42 F (6 C)
Relative Humidity: 76%
Pressure (altimeter): 29.97 in. Hg (1015 hPa)
ob: DAOB 221500Z 20014KT 9999 SCT023 BKN026 10/06 Q1015
cycle: 15

Station Type Date Time Source
DAOB TAF 2020/01/22 12:33 UTC NOAA

TAF DAOB 221100Z 2212/2312 17010KT 8000 SCT026 PROB30
TEMPO 2212/2215 17015G25KT 5000 DU FEW026CB PROB40
TEMPO 2214/2220 5000 -RA FEW023CB
BECMG 2221/2224 VRB02KT PROB30
TEMPO 2302/2308 3000 BR BKN015

Example: see airport list